sensor_id;sensor_type;location;lat;lon;timestamp;P1;durP1;ratioP1;P2;durP2;ratioP2
39098;SDS011;24844;52.380;7.018;2022-09-09T00:03:53;4.15;;;2.45;;
39098;SDS011;24844;52.380;7.018;2022-09-09T00:06:46;7.32;;;2.30;;
39098;SDS011;24844;52.380;7.018;2022-09-09T00:09:21;4.50;;;2.42;;
39098;SDS011;24844;52.380;7.018;2022-09-09T00:11:52;5.97;;;2.60;;
39098;SDS011;24844;52.380;7.018;2022-09-09T00:14:25;6.00;;;2.75;;
39098;SDS011;24844;52.380;7.018;2022-09-09T00:16:56;3.88;;;2.25;;
39098;SDS011;24844;52.380;7.018;2022-09-09T00:27:07;3.22;;;1.85;;
39098;SDS011;24844;52.380;7.018;2022-09-09T00:29:43;4.82;;;2.55;;
39098;SDS011;24844;52.380;7.018;2022-09-09T00:32:14;4.28;;;2.15;;
39098;SDS011;24844;52.380;7.018;2022-09-09T00:34:47;9.45;;;2.00;;
39098;SDS011;24844;52.380;7.018;2022-09-09T00:37:15;4.18;;;2.20;;
39098;SDS011;24844;52.380;7.018;2022-09-09T00:39:46;3.00;;;2.20;;
39098;SDS011;24844;52.380;7.018;2022-09-09T00:42:21;6.38;;;2.05;;
39098;SDS011;24844;52.380;7.018;2022-09-09T00:47:36;3.35;;;1.67;;
39098;SDS011;24844;52.380;7.018;2022-09-09T00:50:16;3.00;;;1.67;;
39098;SDS011;24844;52.380;7.018;2022-09-09T00:53:02;3.67;;;1.60;;
39098;SDS011;24844;52.380;7.018;2022-09-09T00:58:29;4.25;;;1.67;;
39098;SDS011;24844;52.380;7.018;2022-09-09T01:01:04;4.00;;;1.70;;
39098;SDS011;24844;52.380;7.018;2022-09-09T01:03:38;2.83;;;1.40;;
39098;SDS011;24844;52.380;7.018;2022-09-09T01:11:57;2.58;;;1.42;;
39098;SDS011;24844;52.380;7.018;2022-09-09T01:17:14;3.38;;;1.63;;
39098;SDS011;24844;52.380;7.018;2022-09-09T01:22:26;2.63;;;1.63;;
39098;SDS011;24844;52.380;7.018;2022-09-09T01:25:10;2.67;;;1.77;;
39098;SDS011;24844;52.380;7.018;2022-09-09T01:27:43;3.60;;;1.60;;
39098;SDS011;24844;52.380;7.018;2022-09-09T01:30:11;4.20;;;1.60;;
39098;SDS011;24844;52.380;7.018;2022-09-09T01:32:41;2.40;;;1.65;;
39098;SDS011;24844;52.380;7.018;2022-09-09T01:35:26;4.43;;;1.50;;
39098;SDS011;24844;52.380;7.018;2022-09-09T01:38:09;1.58;;;1.30;;
39098;SDS011;24844;52.380;7.018;2022-09-09T01:40:35;5.47;;;1.50;;
39098;SDS011;24844;52.380;7.018;2022-09-09T01:43:01;4.07;;;1.65;;
39098;SDS011;24844;52.380;7.018;2022-09-09T01:45:28;4.38;;;2.25;;
39098;SDS011;24844;52.380;7.018;2022-09-09T01:47:54;2.58;;;1.80;;
39098;SDS011;24844;52.380;7.018;2022-09-09T01:50:21;3.00;;;1.58;;
39098;SDS011;24844;52.380;7.018;2022-09-09T01:52:48;4.05;;;1.80;;
39098;SDS011;24844;52.380;7.018;2022-09-09T01:55:20;3.95;;;2.00;;
39098;SDS011;24844;52.380;7.018;2022-09-09T02:00:33;3.67;;;2.13;;
39098;SDS011;24844;52.380;7.018;2022-09-09T02:03:07;3.03;;;1.80;;
39098;SDS011;24844;52.380;7.018;2022-09-09T02:05:41;4.68;;;2.60;;
39098;SDS011;24844;52.380;7.018;2022-09-09T02:08:23;3.38;;;2.38;;
39098;SDS011;24844;52.380;7.018;2022-09-09T02:11:16;4.95;;;2.55;;
39098;SDS011;24844;52.380;7.018;2022-09-09T02:13:40;4.15;;;2.40;;
39098;SDS011;24844;52.380;7.018;2022-09-09T02:16:27;4.07;;;2.50;;
39098;SDS011;24844;52.380;7.018;2022-09-09T02:21:33;4.68;;;2.90;;
39098;SDS011;24844;52.380;7.018;2022-09-09T02:24:02;3.72;;;2.65;;
39098;SDS011;24844;52.380;7.018;2022-09-09T02:26:31;7.65;;;3.10;;
39098;SDS011;24844;52.380;7.018;2022-09-09T02:28:58;5.22;;;3.10;;
39098;SDS011;24844;52.380;7.018;2022-09-09T02:31:26;7.13;;;3.38;;
39098;SDS011;24844;52.380;7.018;2022-09-09T02:33:54;5.75;;;4.03;;
39098;SDS011;24844;52.380;7.018;2022-09-09T02:36:24;5.25;;;4.10;;
39098;SDS011;24844;52.380;7.018;2022-09-09T02:38:52;5.35;;;4.13;;
39098;SDS011;24844;52.380;7.018;2022-09-09T02:41:27;7.13;;;4.40;;
39098;SDS011;24844;52.380;7.018;2022-09-09T02:43:56;5.68;;;4.38;;
39098;SDS011;24844;52.380;7.018;2022-09-09T02:46:43;5.00;;;4.20;;
39098;SDS011;24844;52.380;7.018;2022-09-09T02:52:02;7.13;;;4.88;;
39098;SDS011;24844;52.380;7.018;2022-09-09T02:54:31;5.60;;;4.15;;
39098;SDS011;24844;52.380;7.018;2022-09-09T02:57:10;6.30;;;4.30;;
39098;SDS011;24844;52.380;7.018;2022-09-09T02:59:44;4.72;;;3.67;;
39098;SDS011;24844;52.380;7.018;2022-09-09T03:02:10;6.40;;;4.75;;
39098;SDS011;24844;52.380;7.018;2022-09-09T03:04:37;8.38;;;5.10;;
39098;SDS011;24844;52.380;7.018;2022-09-09T03:07:04;4.72;;;4.28;;
39098;SDS011;24844;52.380;7.018;2022-09-09T03:09:29;8.05;;;5.03;;
39098;SDS011;24844;52.380;7.018;2022-09-09T03:11:57;7.28;;;5.03;;
39098;SDS011;24844;52.380;7.018;2022-09-09T03:14:23;7.25;;;5.60;;
39098;SDS011;24844;52.380;7.018;2022-09-09T03:16:52;6.28;;;5.57;;
39098;SDS011;24844;52.380;7.018;2022-09-09T03:19:18;7.68;;;5.80;;
39098;SDS011;24844;52.380;7.018;2022-09-09T03:21:44;6.57;;;5.75;;
39098;SDS011;24844;52.380;7.018;2022-09-09T03:24:13;7.32;;;5.22;;
39098;SDS011;24844;52.380;7.018;2022-09-09T03:26:39;7.90;;;5.78;;
39098;SDS011;24844;52.380;7.018;2022-09-09T03:29:06;6.30;;;5.70;;
39098;SDS011;24844;52.380;7.018;2022-09-09T03:31:33;10.40;;;6.07;;
39098;SDS011;24844;52.380;7.018;2022-09-09T03:33:59;7.13;;;5.85;;
39098;SDS011;24844;52.380;7.018;2022-09-09T03:36:26;7.82;;;6.07;;
39098;SDS011;24844;52.380;7.018;2022-09-09T03:38:52;7.35;;;6.00;;
39098;SDS011;24844;52.380;7.018;2022-09-09T03:41:19;7.28;;;5.72;;
39098;SDS011;24844;52.380;7.018;2022-09-09T03:43:45;6.43;;;5.35;;
39098;SDS011;24844;52.380;7.018;2022-09-09T03:46:11;6.93;;;6.07;;
39098;SDS011;24844;52.380;7.018;2022-09-09T03:48:36;8.32;;;6.13;;
39098;SDS011;24844;52.380;7.018;2022-09-09T03:51:02;9.48;;;6.60;;
39098;SDS011;24844;52.380;7.018;2022-09-09T03:53:28;7.07;;;6.38;;
39098;SDS011;24844;52.380;7.018;2022-09-09T03:55:54;8.93;;;6.75;;
39098;SDS011;24844;52.380;7.018;2022-09-09T03:58:21;8.82;;;6.55;;
39098;SDS011;24844;52.380;7.018;2022-09-09T04:00:53;8.48;;;6.38;;
39098;SDS011;24844;52.380;7.018;2022-09-09T04:03:23;8.95;;;6.25;;
39098;SDS011;24844;52.380;7.018;2022-09-09T04:05:50;7.72;;;5.90;;
39098;SDS011;24844;52.380;7.018;2022-09-09T04:08:17;7.00;;;6.07;;
39098;SDS011;24844;52.380;7.018;2022-09-09T04:10:44;9.25;;;6.20;;
39098;SDS011;24844;52.380;7.018;2022-09-09T04:13:11;10.65;;;6.90;;
39098;SDS011;24844;52.380;7.018;2022-09-09T04:15:40;6.72;;;6.03;;
39098;SDS011;24844;52.380;7.018;2022-09-09T04:18:06;7.63;;;6.82;;
39098;SDS011;24844;52.380;7.018;2022-09-09T04:20:31;8.38;;;6.80;;
39098;SDS011;24844;52.380;7.018;2022-09-09T04:22:57;7.75;;;6.20;;
39098;SDS011;24844;52.380;7.018;2022-09-09T04:25:23;7.90;;;6.70;;
39098;SDS011;24844;52.380;7.018;2022-09-09T04:27:53;10.07;;;7.30;;
39098;SDS011;24844;52.380;7.018;2022-09-09T04:30:19;9.23;;;7.75;;
39098;SDS011;24844;52.380;7.018;2022-09-09T04:32:45;12.63;;;9.10;;
39098;SDS011;24844;52.380;7.018;2022-09-09T04:35:11;10.40;;;8.40;;
39098;SDS011;24844;52.380;7.018;2022-09-09T04:37:37;11.07;;;8.38;;
39098;SDS011;24844;52.380;7.018;2022-09-09T04:40:02;9.43;;;7.90;;
39098;SDS011;24844;52.380;7.018;2022-09-09T04:42:28;12.50;;;9.23;;
39098;SDS011;24844;52.380;7.018;2022-09-09T04:44:53;11.75;;;9.15;;
39098;SDS011;24844;52.380;7.018;2022-09-09T04:47:19;13.68;;;10.27;;
39098;SDS011;24844;52.380;7.018;2022-09-09T04:49:45;15.07;;;11.23;;
39098;SDS011;24844;52.380;7.018;2022-09-09T04:52:10;18.20;;;11.15;;
39098;SDS011;24844;52.380;7.018;2022-09-09T04:54:36;17.58;;;12.38;;
39098;SDS011;24844;52.380;7.018;2022-09-09T04:57:02;14.25;;;11.23;;
39098;SDS011;24844;52.380;7.018;2022-09-09T04:59:27;16.20;;;10.88;;
39098;SDS011;24844;52.380;7.018;2022-09-09T05:01:53;14.48;;;11.50;;
39098;SDS011;24844;52.380;7.018;2022-09-09T05:04:20;17.75;;;12.35;;
39098;SDS011;24844;52.380;7.018;2022-09-09T05:06:46;13.75;;;11.20;;
39098;SDS011;24844;52.380;7.018;2022-09-09T05:09:12;16.27;;;12.43;;
39098;SDS011;24844;52.380;7.018;2022-09-09T05:11:37;14.32;;;12.13;;
39098;SDS011;24844;52.380;7.018;2022-09-09T05:14:03;19.15;;;14.60;;
39098;SDS011;24844;52.380;7.018;2022-09-09T05:16:29;20.95;;;13.85;;
39098;SDS011;24844;52.380;7.018;2022-09-09T05:18:55;16.40;;;12.68;;
39098;SDS011;24844;52.380;7.018;2022-09-09T05:21:22;15.48;;;12.68;;
39098;SDS011;24844;52.380;7.018;2022-09-09T05:23:50;21.90;;;13.15;;
39098;SDS011;24844;52.380;7.018;2022-09-09T05:26:16;15.75;;;12.35;;
39098;SDS011;24844;52.380;7.018;2022-09-09T05:28:44;17.80;;;13.30;;
39098;SDS011;24844;52.380;7.018;2022-09-09T05:31:11;18.38;;;13.45;;
39098;SDS011;24844;52.380;7.018;2022-09-09T05:33:38;18.13;;;13.90;;
39098;SDS011;24844;52.380;7.018;2022-09-09T05:36:09;14.48;;;12.68;;
39098;SDS011;24844;52.380;7.018;2022-09-09T05:38:38;18.50;;;12.95;;
39098;SDS011;24844;52.380;7.018;2022-09-09T05:41:04;17.65;;;13.82;;
39098;SDS011;24844;52.380;7.018;2022-09-09T05:43:30;17.58;;;13.60;;
39098;SDS011;24844;52.380;7.018;2022-09-09T05:48:55;16.75;;;13.05;;
39098;SDS011;24844;52.380;7.018;2022-09-09T05:51:22;21.65;;;13.48;;
39098;SDS011;24844;52.380;7.018;2022-09-09T05:53:49;16.02;;;13.20;;
39098;SDS011;24844;52.380;7.018;2022-09-09T05:56:20;17.33;;;12.48;;
39098;SDS011;24844;52.380;7.018;2022-09-09T05:58:47;15.90;;;11.70;;
39098;SDS011;24844;52.380;7.018;2022-09-09T06:01:15;15.18;;;10.80;;
39098;SDS011;24844;52.380;7.018;2022-09-09T06:03:42;15.93;;;11.10;;
39098;SDS011;24844;52.380;7.018;2022-09-09T06:06:10;12.60;;;10.05;;
39098;SDS011;24844;52.380;7.018;2022-09-09T06:08:39;14.60;;;10.35;;
39098;SDS011;24844;52.380;7.018;2022-09-09T06:11:09;15.90;;;10.25;;
39098;SDS011;24844;52.380;7.018;2022-09-09T06:13:40;15.20;;;9.80;;
39098;SDS011;24844;52.380;7.018;2022-09-09T06:16:10;14.02;;;9.35;;
39098;SDS011;24844;52.380;7.018;2022-09-09T06:18:40;12.90;;;8.57;;
39098;SDS011;24844;52.380;7.018;2022-09-09T06:21:08;12.40;;;8.98;;
39098;SDS011;24844;52.380;7.018;2022-09-09T06:23:38;14.68;;;7.53;;
39098;SDS011;24844;52.380;7.018;2022-09-09T06:26:09;11.05;;;7.50;;
39098;SDS011;24844;52.380;7.018;2022-09-09T06:31:07;10.88;;;6.40;;
39098;SDS011;24844;52.380;7.018;2022-09-09T06:33:36;11.57;;;6.72;;
39098;SDS011;24844;52.380;7.018;2022-09-09T06:36:06;8.98;;;6.13;;
39098;SDS011;24844;52.380;7.018;2022-09-09T06:38:32;8.60;;;6.10;;
39098;SDS011;24844;52.380;7.018;2022-09-09T06:40:58;11.48;;;6.20;;
39098;SDS011;24844;52.380;7.018;2022-09-09T06:43:25;10.02;;;5.75;;
39098;SDS011;24844;52.380;7.018;2022-09-09T06:48:25;10.23;;;5.07;;
39098;SDS011;24844;52.380;7.018;2022-09-09T06:50:59;7.63;;;4.40;;
39098;SDS011;24844;52.380;7.018;2022-09-09T06:53:31;9.25;;;4.82;;
39098;SDS011;24844;52.380;7.018;2022-09-09T06:56:01;7.57;;;4.22;;
39098;SDS011;24844;52.380;7.018;2022-09-09T06:58:27;9.40;;;4.25;;
39098;SDS011;24844;52.380;7.018;2022-09-09T07:01:01;8.40;;;4.10;;
39098;SDS011;24844;52.380;7.018;2022-09-09T07:03:31;7.70;;;3.92;;
39098;SDS011;24844;52.380;7.018;2022-09-09T07:05:58;8.15;;;3.70;;
39098;SDS011;24844;52.380;7.018;2022-09-09T07:08:25;8.05;;;3.60;;
39098;SDS011;24844;52.380;7.018;2022-09-09T07:10:51;12.25;;;4.05;;
39098;SDS011;24844;52.380;7.018;2022-09-09T07:13:24;6.90;;;3.42;;
39098;SDS011;24844;52.380;7.018;2022-09-09T07:15:50;7.07;;;3.63;;
39098;SDS011;24844;52.380;7.018;2022-09-09T07:18:16;8.68;;;3.75;;
39098;SDS011;24844;52.380;7.018;2022-09-09T07:20:42;7.78;;;3.22;;
39098;SDS011;24844;52.380;7.018;2022-09-09T07:23:07;8.50;;;3.13;;
39098;SDS011;24844;52.380;7.018;2022-09-09T07:25:33;8.63;;;3.30;;
39098;SDS011;24844;52.380;7.018;2022-09-09T07:27:59;6.68;;;3.10;;
39098;SDS011;24844;52.380;7.018;2022-09-09T07:30:24;8.07;;;2.80;;
39098;SDS011;24844;52.380;7.018;2022-09-09T07:32:51;6.95;;;2.60;;
39098;SDS011;24844;52.380;7.018;2022-09-09T07:35:17;8.15;;;2.60;;
39098;SDS011;24844;52.380;7.018;2022-09-09T07:37:42;7.22;;;2.58;;
39098;SDS011;24844;52.380;7.018;2022-09-09T07:40:08;6.78;;;2.30;;
39098;SDS011;24844;52.380;7.018;2022-09-09T07:42:35;9.93;;;3.20;;
39098;SDS011;24844;52.380;7.018;2022-09-09T07:45:02;9.63;;;2.50;;
39098;SDS011;24844;52.380;7.018;2022-09-09T07:47:28;8.23;;;2.25;;
39098;SDS011;24844;52.380;7.018;2022-09-09T07:49:54;6.32;;;2.17;;
39098;SDS011;24844;52.380;7.018;2022-09-09T07:52:20;8.13;;;2.30;;
39098;SDS011;24844;52.380;7.018;2022-09-09T07:54:46;6.22;;;2.10;;
39098;SDS011;24844;52.380;7.018;2022-09-09T07:57:12;6.30;;;2.00;;
39098;SDS011;24844;52.380;7.018;2022-09-09T07:59:37;12.20;;;2.30;;
39098;SDS011;24844;52.380;7.018;2022-09-09T08:02:03;7.18;;;2.13;;
39098;SDS011;24844;52.380;7.018;2022-09-09T08:04:29;6.30;;;2.10;;
39098;SDS011;24844;52.380;7.018;2022-09-09T08:06:58;6.03;;;1.67;;
39098;SDS011;24844;52.380;7.018;2022-09-09T08:09:26;10.30;;;2.25;;
39098;SDS011;24844;52.380;7.018;2022-09-09T08:11:53;5.40;;;1.70;;
39098;SDS011;24844;52.380;7.018;2022-09-09T08:14:21;7.03;;;1.93;;
39098;SDS011;24844;52.380;7.018;2022-09-09T08:16:48;10.85;;;1.92;;
39098;SDS011;24844;52.380;7.018;2022-09-09T08:19:14;8.80;;;1.70;;
39098;SDS011;24844;52.380;7.018;2022-09-09T08:21:41;7.57;;;1.60;;
39098;SDS011;24844;52.380;7.018;2022-09-09T08:24:07;8.75;;;1.75;;
39098;SDS011;24844;52.380;7.018;2022-09-09T08:26:40;9.48;;;1.80;;
39098;SDS011;24844;52.380;7.018;2022-09-09T08:29:08;8.32;;;1.70;;
39098;SDS011;24844;52.380;7.018;2022-09-09T08:31:37;9.50;;;1.50;;
39098;SDS011;24844;52.380;7.018;2022-09-09T08:34:13;9.13;;;2.10;;
39098;SDS011;24844;52.380;7.018;2022-09-09T08:36:41;6.28;;;1.88;;
39098;SDS011;24844;52.380;7.018;2022-09-09T08:39:09;5.80;;;1.85;;
39098;SDS011;24844;52.380;7.018;2022-09-09T08:44:28;5.13;;;1.63;;
39098;SDS011;24844;52.380;7.018;2022-09-09T08:52:28;5.78;;;1.30;;
39098;SDS011;24844;52.380;7.018;2022-09-09T08:55:43;7.65;;;2.03;;
39098;SDS011;24844;52.380;7.018;2022-09-09T08:57:55;11.18;;;1.70;;
39098;SDS011;24844;52.380;7.018;2022-09-09T09:00:22;8.73;;;1.67;;
39098;SDS011;24844;52.380;7.018;2022-09-09T09:16:14;4.53;;;1.40;;
39098;SDS011;24844;52.380;7.018;2022-09-09T09:18:48;11.68;;;2.30;;
39098;SDS011;24844;52.380;7.018;2022-09-09T09:21:17;5.68;;;1.60;;
39098;SDS011;24844;52.380;7.018;2022-09-09T09:23:59;7.07;;;1.63;;
39098;SDS011;24844;52.380;7.018;2022-09-09T09:26:35;8.30;;;1.42;;
39098;SDS011;24844;52.380;7.018;2022-09-09T09:29:07;6.20;;;1.65;;
39098;SDS011;24844;52.380;7.018;2022-09-09T09:31:36;9.30;;;1.90;;
39098;SDS011;24844;52.380;7.018;2022-09-09T09:34:02;8.60;;;1.98;;
39098;SDS011;24844;52.380;7.018;2022-09-09T09:36:37;7.90;;;1.88;;
39098;SDS011;24844;52.380;7.018;2022-09-09T09:39:06;11.23;;;1.88;;
39098;SDS011;24844;52.380;7.018;2022-09-09T09:41:36;5.57;;;1.67;;
39098;SDS011;24844;52.380;7.018;2022-09-09T09:44:21;5.68;;;1.80;;
39098;SDS011;24844;52.380;7.018;2022-09-09T09:47:15;7.40;;;2.13;;
39098;SDS011;24844;52.380;7.018;2022-09-09T09:49:50;8.27;;;1.90;;
39098;SDS011;24844;52.380;7.018;2022-09-09T09:52:24;6.50;;;1.60;;
39098;SDS011;24844;52.380;7.018;2022-09-09T09:54:53;6.85;;;1.50;;
39098;SDS011;24844;52.380;7.018;2022-09-09T09:57:24;4.35;;;1.45;;
39098;SDS011;24844;52.380;7.018;2022-09-09T10:00:01;8.02;;;1.92;;
39098;SDS011;24844;52.380;7.018;2022-09-09T10:02:38;6.07;;;1.58;;
39098;SDS011;24844;52.380;7.018;2022-09-09T10:07:47;7.13;;;1.95;;
39098;SDS011;24844;52.380;7.018;2022-09-09T10:10:27;5.90;;;1.35;;
39098;SDS011;24844;52.380;7.018;2022-09-09T10:13:10;7.55;;;1.50;;
39098;SDS011;24844;52.380;7.018;2022-09-09T10:21:23;6.65;;;1.80;;
39098;SDS011;24844;52.380;7.018;2022-09-09T10:24:21;2.90;;;1.02;;
39098;SDS011;24844;52.380;7.018;2022-09-09T10:26:55;7.63;;;1.25;;
39098;SDS011;24844;52.380;7.018;2022-09-09T10:34:56;4.38;;;1.42;;
39098;SDS011;24844;52.380;7.018;2022-09-09T10:40:38;5.30;;;1.17;;
39098;SDS011;24844;52.380;7.018;2022-09-09T10:43:13;5.47;;;1.30;;
39098;SDS011;24844;52.380;7.018;2022-09-09T10:45:55;6.70;;;1.58;;
39098;SDS011;24844;52.380;7.018;2022-09-09T10:51:38;3.33;;;0.93;;
39098;SDS011;24844;52.380;7.018;2022-09-09T10:54:21;5.75;;;1.55;;
39098;SDS011;24844;52.380;7.018;2022-09-09T10:56:53;6.53;;;1.55;;
39098;SDS011;24844;52.380;7.018;2022-09-09T10:59:24;3.55;;;1.08;;
39098;SDS011;24844;52.380;7.018;2022-09-09T11:02:00;4.80;;;1.20;;
39098;SDS011;24844;52.380;7.018;2022-09-09T11:04:43;3.53;;;0.85;;
39098;SDS011;24844;52.380;7.018;2022-09-09T11:07:16;5.05;;;1.58;;
39098;SDS011;24844;52.380;7.018;2022-09-09T11:09:52;4.35;;;1.00;;
39098;SDS011;24844;52.380;7.018;2022-09-09T11:12:23;5.72;;;1.42;;
39098;SDS011;24844;52.380;7.018;2022-09-09T11:14:51;4.97;;;1.27;;
39098;SDS011;24844;52.380;7.018;2022-09-09T11:17:30;6.15;;;1.33;;
39098;SDS011;24844;52.380;7.018;2022-09-09T11:20:05;5.93;;;1.35;;
39098;SDS011;24844;52.380;7.018;2022-09-09T11:22:37;5.88;;;1.40;;
39098;SDS011;24844;52.380;7.018;2022-09-09T11:25:22;4.38;;;1.00;;
39098;SDS011;24844;52.380;7.018;2022-09-09T11:28:05;3.83;;;0.98;;
39098;SDS011;24844;52.380;7.018;2022-09-09T11:41:16;4.63;;;1.02;;
39098;SDS011;24844;52.380;7.018;2022-09-09T11:43:44;4.63;;;1.17;;
39098;SDS011;24844;52.380;7.018;2022-09-09T11:46:12;5.18;;;1.10;;
39098;SDS011;24844;52.380;7.018;2022-09-09T11:48:41;3.33;;;0.95;;
39098;SDS011;24844;52.380;7.018;2022-09-09T11:51:24;4.88;;;1.15;;
39098;SDS011;24844;52.380;7.018;2022-09-09T11:53:57;7.88;;;1.52;;
39098;SDS011;24844;52.380;7.018;2022-09-09T11:56:31;5.82;;;1.30;;
39098;SDS011;24844;52.380;7.018;2022-09-09T11:59:03;3.78;;;1.17;;
39098;SDS011;24844;52.380;7.018;2022-09-09T12:01:37;5.40;;;1.27;;
39098;SDS011;24844;52.380;7.018;2022-09-09T12:04:10;5.88;;;1.30;;
39098;SDS011;24844;52.380;7.018;2022-09-09T12:06:44;4.65;;;1.17;;
39098;SDS011;24844;52.380;7.018;2022-09-09T12:17:25;3.97;;;1.20;;
39098;SDS011;24844;52.380;7.018;2022-09-09T12:20:12;4.90;;;0.93;;
39098;SDS011;24844;52.380;7.018;2022-09-09T12:28:15;4.32;;;1.25;;
39098;SDS011;24844;52.380;7.018;2022-09-09T12:31:02;3.58;;;1.17;;
39098;SDS011;24844;52.380;7.018;2022-09-09T12:33:48;6.03;;;1.20;;
39098;SDS011;24844;52.380;7.018;2022-09-09T12:36:18;4.05;;;1.10;;
39098;SDS011;24844;52.380;7.018;2022-09-09T12:38:48;4.85;;;1.13;;
39098;SDS011;24844;52.380;7.018;2022-09-09T12:41:18;3.67;;;0.68;;
39098;SDS011;24844;52.380;7.018;2022-09-09T12:43:46;14.45;;;1.90;;
39098;SDS011;24844;52.380;7.018;2022-09-09T12:46:16;2.60;;;0.80;;
39098;SDS011;24844;52.380;7.018;2022-09-09T12:48:58;3.63;;;1.20;;
39098;SDS011;24844;52.380;7.018;2022-09-09T12:51:25;4.50;;;1.38;;
39098;SDS011;24844;52.380;7.018;2022-09-09T12:53:54;4.00;;;0.90;;
39098;SDS011;24844;52.380;7.018;2022-09-09T12:56:21;2.50;;;0.90;;
39098;SDS011;24844;52.380;7.018;2022-09-09T12:58:52;5.43;;;1.10;;
39098;SDS011;24844;52.380;7.018;2022-09-09T13:03:49;4.45;;;0.90;;
39098;SDS011;24844;52.380;7.018;2022-09-09T13:06:20;4.00;;;0.80;;
39098;SDS011;24844;52.380;7.018;2022-09-09T13:08:58;4.43;;;1.13;;
39098;SDS011;24844;52.380;7.018;2022-09-09T13:11:26;3.20;;;1.00;;
39098;SDS011;24844;52.380;7.018;2022-09-09T13:14:13;6.30;;;1.33;;
39098;SDS011;24844;52.380;7.018;2022-09-09T13:16:53;5.43;;;1.30;;
39098;SDS011;24844;52.380;7.018;2022-09-09T13:19:23;4.35;;;1.10;;
39098;SDS011;24844;52.380;7.018;2022-09-09T13:21:53;7.20;;;1.20;;
39098;SDS011;24844;52.380;7.018;2022-09-09T13:24:27;2.60;;;1.00;;
39098;SDS011;24844;52.380;7.018;2022-09-09T13:26:58;4.30;;;1.20;;
39098;SDS011;24844;52.380;7.018;2022-09-09T13:29:28;5.65;;;0.98;;
39098;SDS011;24844;52.380;7.018;2022-09-09T13:32:05;4.10;;;0.90;;
39098;SDS011;24844;52.380;7.018;2022-09-09T13:34:37;3.58;;;0.98;;
39098;SDS011;24844;52.380;7.018;2022-09-09T13:37:06;9.07;;;0.95;;
39098;SDS011;24844;52.380;7.018;2022-09-09T13:39:50;5.78;;;1.35;;
39098;SDS011;24844;52.380;7.018;2022-09-09T13:42:28;2.35;;;1.00;;
39098;SDS011;24844;52.380;7.018;2022-09-09T13:44:55;3.17;;;0.85;;
39098;SDS011;24844;52.380;7.018;2022-09-09T13:47:27;3.80;;;0.85;;
39098;SDS011;24844;52.380;7.018;2022-09-09T13:52:45;1.27;;;0.60;;
39098;SDS011;24844;52.380;7.018;2022-09-09T13:55:12;3.53;;;0.73;;
39098;SDS011;24844;52.380;7.018;2022-09-09T13:57:37;5.55;;;0.85;;
39098;SDS011;24844;52.380;7.018;2022-09-09T14:00:03;3.95;;;0.88;;
39098;SDS011;24844;52.380;7.018;2022-09-09T14:02:31;3.60;;;1.05;;
39098;SDS011;24844;52.380;7.018;2022-09-09T14:04:58;4.20;;;0.93;;
39098;SDS011;24844;52.380;7.018;2022-09-09T14:07:24;2.22;;;0.70;;
39098;SDS011;24844;52.380;7.018;2022-09-09T14:09:50;3.42;;;0.80;;
39098;SDS011;24844;52.380;7.018;2022-09-09T14:12:16;4.45;;;0.90;;
39098;SDS011;24844;52.380;7.018;2022-09-09T14:14:43;4.47;;;0.93;;
39098;SDS011;24844;52.380;7.018;2022-09-09T14:17:09;3.30;;;0.90;;
39098;SDS011;24844;52.380;7.018;2022-09-09T14:19:34;6.68;;;1.00;;
39098;SDS011;24844;52.380;7.018;2022-09-09T14:22:01;2.47;;;0.80;;
39098;SDS011;24844;52.380;7.018;2022-09-09T14:24:28;3.25;;;0.90;;
39098;SDS011;24844;52.380;7.018;2022-09-09T14:26:53;2.15;;;0.70;;
39098;SDS011;24844;52.380;7.018;2022-09-09T14:29:19;3.72;;;1.17;;
39098;SDS011;24844;52.380;7.018;2022-09-09T14:31:45;5.00;;;0.90;;
39098;SDS011;24844;52.380;7.018;2022-09-09T14:34:10;4.20;;;1.30;;
39098;SDS011;24844;52.380;7.018;2022-09-09T14:36:37;4.30;;;1.08;;
39098;SDS011;24844;52.380;7.018;2022-09-09T14:39:03;2.60;;;0.77;;
39098;SDS011;24844;52.380;7.018;2022-09-09T14:41:29;1.90;;;0.90;;
39098;SDS011;24844;52.380;7.018;2022-09-09T14:43:55;3.90;;;0.95;;
39098;SDS011;24844;52.380;7.018;2022-09-09T14:46:21;3.95;;;0.80;;
39098;SDS011;24844;52.380;7.018;2022-09-09T14:48:47;3.83;;;0.90;;
39098;SDS011;24844;52.380;7.018;2022-09-09T14:51:17;2.22;;;0.90;;
39098;SDS011;24844;52.380;7.018;2022-09-09T14:53:52;4.72;;;1.63;;
39098;SDS011;24844;52.380;7.018;2022-09-09T14:56:25;3.50;;;1.05;;
39098;SDS011;24844;52.380;7.018;2022-09-09T14:58:56;2.80;;;0.98;;
39098;SDS011;24844;52.380;7.018;2022-09-09T15:01:23;4.35;;;1.02;;
39098;SDS011;24844;52.380;7.018;2022-09-09T15:03:58;3.42;;;0.98;;
39098;SDS011;24844;52.380;7.018;2022-09-09T15:06:27;4.05;;;1.20;;
39098;SDS011;24844;52.380;7.018;2022-09-09T15:08:55;5.50;;;1.58;;
39098;SDS011;24844;52.380;7.018;2022-09-09T15:11:23;3.35;;;1.30;;
39098;SDS011;24844;52.380;7.018;2022-09-09T15:13:52;3.83;;;1.48;;
39098;SDS011;24844;52.380;7.018;2022-09-09T15:16:19;5.82;;;1.63;;
39098;SDS011;24844;52.380;7.018;2022-09-09T15:18:46;6.03;;;1.65;;
39098;SDS011;24844;52.380;7.018;2022-09-09T15:21:16;4.97;;;1.85;;
39098;SDS011;24844;52.380;7.018;2022-09-09T15:23:46;3.05;;;1.40;;
39098;SDS011;24844;52.380;7.018;2022-09-09T15:26:16;3.40;;;1.35;;
39098;SDS011;24844;52.380;7.018;2022-09-09T15:28:43;3.25;;;1.45;;
39098;SDS011;24844;52.380;7.018;2022-09-09T15:31:17;3.47;;;1.20;;
39098;SDS011;24844;52.380;7.018;2022-09-09T15:33:50;4.72;;;1.88;;
39098;SDS011;24844;52.380;7.018;2022-09-09T15:36:22;4.05;;;1.70;;
39098;SDS011;24844;52.380;7.018;2022-09-09T15:38:49;5.20;;;2.20;;
39098;SDS011;24844;52.380;7.018;2022-09-09T15:41:16;5.72;;;1.92;;
39098;SDS011;24844;52.380;7.018;2022-09-09T15:43:43;5.22;;;1.55;;
39098;SDS011;24844;52.380;7.018;2022-09-09T15:46:32;4.88;;;1.80;;
39098;SDS011;24844;52.380;7.018;2022-09-09T15:49:09;6.65;;;1.85;;
39098;SDS011;24844;52.380;7.018;2022-09-09T15:51:37;3.05;;;1.70;;
39098;SDS011;24844;52.380;7.018;2022-09-09T15:54:04;6.75;;;1.50;;
39098;SDS011;24844;52.380;7.018;2022-09-09T15:56:30;6.35;;;1.75;;
39098;SDS011;24844;52.380;7.018;2022-09-09T15:58:57;7.47;;;1.90;;
39098;SDS011;24844;52.380;7.018;2022-09-09T16:01:24;4.65;;;1.92;;
39098;SDS011;24844;52.380;7.018;2022-09-09T16:03:51;8.45;;;2.10;;
39098;SDS011;24844;52.380;7.018;2022-09-09T16:06:19;4.32;;;1.70;;
39098;SDS011;24844;52.380;7.018;2022-09-09T16:08:47;3.22;;;1.60;;
39098;SDS011;24844;52.380;7.018;2022-09-09T16:11:18;4.95;;;1.75;;
39098;SDS011;24844;52.380;7.018;2022-09-09T16:13:50;3.22;;;1.65;;
39098;SDS011;24844;52.380;7.018;2022-09-09T16:16:17;4.55;;;1.60;;
39098;SDS011;24844;52.380;7.018;2022-09-09T16:18:47;6.00;;;1.90;;
39098;SDS011;24844;52.380;7.018;2022-09-09T16:21:15;7.85;;;1.80;;
39098;SDS011;24844;52.380;7.018;2022-09-09T16:26:10;8.27;;;1.90;;
39098;SDS011;24844;52.380;7.018;2022-09-09T16:28:37;4.38;;;1.60;;
39098;SDS011;24844;52.380;7.018;2022-09-09T16:31:04;6.78;;;1.58;;
39098;SDS011;24844;52.380;7.018;2022-09-09T16:33:31;5.78;;;1.50;;
39098;SDS011;24844;52.380;7.018;2022-09-09T16:35:56;3.28;;;1.50;;
39098;SDS011;24844;52.380;7.018;2022-09-09T16:38:22;3.88;;;1.40;;
39098;SDS011;24844;52.380;7.018;2022-09-09T16:40:47;4.65;;;1.60;;
39098;SDS011;24844;52.380;7.018;2022-09-09T16:43:14;7.50;;;2.03;;
39098;SDS011;24844;52.380;7.018;2022-09-09T16:45:43;6.72;;;1.80;;
39098;SDS011;24844;52.380;7.018;2022-09-09T16:48:10;5.47;;;1.83;;
39098;SDS011;24844;52.380;7.018;2022-09-09T16:50:36;7.38;;;2.22;;
39098;SDS011;24844;52.380;7.018;2022-09-09T16:53:01;3.15;;;1.52;;
39098;SDS011;24844;52.380;7.018;2022-09-09T16:55:31;6.43;;;2.03;;
39098;SDS011;24844;52.380;7.018;2022-09-09T16:57:57;5.65;;;1.98;;